createdAt,value
2018-05-03T00:00:14.714Z,10.72
2018-05-03T00:01:22.777Z,10.75
2018-05-03T00:02:30.841Z,10.68
2018-05-03T00:03:38.891Z,10.72
2018-05-03T00:04:46.956Z,10.69
2018-05-03T00:05:55.012Z,10.59
2018-05-03T00:07:03.069Z,10.75
2018-05-03T00:08:11.143Z,10.71
2018-05-03T00:09:19.206Z,10.68
2018-05-03T00:10:27.259Z,10.68
2018-05-03T00:11:35.326Z,10.69
2018-05-03T00:12:43.387Z,10.62
2018-05-03T00:13:51.447Z,10.67
2018-05-03T00:14:59.506Z,10.69
2018-05-03T00:16:07.593Z,10.65
2018-05-03T00:17:15.616Z,10.65
2018-05-03T00:18:23.705Z,10.65
2018-05-03T00:19:31.735Z,10.64
2018-05-03T00:20:39.807Z,10.64
2018-05-03T00:21:47.877Z,10.69
2018-05-03T00:22:55.934Z,10.72
2018-05-03T00:24:04.003Z,10.69
2018-05-03T00:25:12.036Z,10.75
2018-05-03T00:26:20.121Z,10.75
2018-05-03T00:27:28.181Z,10.69
2018-05-03T00:28:36.239Z,10.75
2018-05-03T00:29:44.302Z,10.69
2018-05-03T00:30:52.329Z,10.65
2018-05-03T00:32:00.413Z,10.68
2018-05-03T00:33:08.488Z,10.65
2018-05-03T00:34:16.551Z,10.71
2018-05-03T00:35:24.613Z,10.80
2018-05-03T00:36:32.651Z,10.71
2018-05-03T00:37:40.733Z,10.75
2018-05-03T00:38:48.787Z,10.75
2018-05-03T00:39:56.857Z,10.76
2018-05-03T00:41:04.909Z,10.64
2018-05-03T00:42:12.953Z,10.62
2018-05-03T00:43:28.246Z,10.68
2018-05-03T00:44:29.095Z,10.68
2018-05-03T00:45:37.156Z,10.65
2018-05-03T00:46:45.236Z,10.64
2018-05-03T00:47:53.281Z,10.68
2018-05-03T00:49:01.393Z,10.75
2018-05-03T00:50:09.393Z,10.62
2018-05-03T00:51:17.475Z,10.69
2018-05-03T00:52:25.533Z,10.69
2018-05-03T00:53:33.593Z,10.71
2018-05-03T00:54:41.651Z,10.69
2018-05-03T00:55:49.716Z,10.69
2018-05-03T00:56:57.807Z,10.64
2018-05-03T00:58:05.840Z,10.67
2018-05-03T00:59:13.899Z,10.72
2018-05-03T01:00:21.956Z,10.58
2018-05-03T01:01:30.051Z,10.64
2018-05-03T01:02:38.088Z,10.68
2018-05-03T01:03:46.139Z,10.68
2018-05-03T01:04:54.205Z,10.69
2018-05-03T01:06:02.239Z,10.65
2018-05-03T01:07:10.328Z,10.69
2018-05-03T01:08:18.390Z,10.75
2018-05-03T01:09:26.449Z,10.76
2018-05-03T01:10:34.497Z,10.69
2018-05-03T01:11:42.555Z,10.68
2018-05-03T01:12:50.621Z,10.65
2018-05-03T01:13:58.691Z,10.53
2018-05-03T01:15:06.754Z,10.58
2018-05-03T01:16:14.864Z,10.55
2018-05-03T01:17:22.857Z,10.57
2018-05-03T01:18:30.936Z,10.53
2018-05-03T01:19:39.024Z,10.51
2018-05-03T01:20:47.046Z,10.57
2018-05-03T01:21:55.110Z,10.55
2018-05-03T01:23:03.178Z,10.46
2018-05-03T01:24:11.233Z,10.48
2018-05-03T01:25:19.293Z,10.48
2018-05-03T01:26:27.369Z,10.49
2018-05-03T01:27:35.432Z,10.53
2018-05-03T01:28:43.493Z,10.49
2018-05-03T01:29:51.553Z,10.55
2018-05-03T01:30:59.613Z,10.55
2018-05-03T01:32:07.674Z,10.55
2018-05-03T01:33:15.720Z,10.48
2018-05-03T01:34:23.797Z,10.51
2018-05-03T01:35:31.859Z,10.36
2018-05-03T01:36:39.910Z,10.41
2018-05-03T01:37:47.979Z,10.45
2018-05-03T01:38:56.037Z,10.42
2018-05-03T01:40:04.107Z,10.51
2018-05-03T01:41:12.143Z,10.39
2018-05-03T01:42:20.227Z,10.38
2018-05-03T01:43:28.304Z,10.38
2018-05-03T01:44:36.343Z,10.38
2018-05-03T01:45:44.411Z,10.46
2018-05-03T01:46:52.438Z,10.42
2018-05-03T01:48:00.514Z,10.51
2018-05-03T01:49:08.592Z,10.51
2018-05-03T01:50:16.653Z,10.41
2018-05-03T01:51:24.712Z,10.43
2018-05-03T01:52:32.755Z,10.51
2018-05-03T01:53:40.836Z,10.41
2018-05-03T01:54:48.890Z,10.49
2018-05-03T01:55:56.948Z,10.48
2018-05-03T01:57:05.026Z,10.46
2018-05-03T01:58:13.063Z,10.42
2018-05-03T01:59:21.136Z,10.43
2018-05-03T02:00:29.208Z,10.49
2018-05-03T02:01:37.263Z,10.53
2018-05-03T02:02:45.328Z,10.51
2018-05-03T02:03:53.382Z,10.51
2018-05-03T02:05:01.464Z,10.48
2018-05-03T02:06:09.524Z,10.57
2018-05-03T02:07:17.566Z,10.46
2018-05-03T02:08:25.636Z,10.55
2018-05-03T02:09:33.696Z,10.41
2018-05-03T02:10:41.754Z,10.39
2018-05-03T02:11:49.804Z,10.39
2018-05-03T02:12:57.874Z,10.42
2018-05-03T02:14:05.944Z,10.48
2018-05-03T02:15:13.983Z,10.48
2018-05-03T02:16:22.076Z,10.46
2018-05-03T02:17:30.167Z,10.36
2018-05-03T02:18:38.178Z,10.43
2018-05-03T02:19:46.231Z,10.34
2018-05-03T02:20:54.304Z,10.34
2018-05-03T02:22:02.352Z,10.45
2018-05-03T02:23:10.422Z,10.41
2018-05-03T02:24:18.481Z,10.43
2018-05-03T02:25:26.532Z,10.43
2018-05-03T02:26:34.595Z,10.46
2018-05-03T02:27:42.644Z,10.39
2018-05-03T02:28:50.728Z,10.34
2018-05-03T02:29:58.797Z,10.25
2018-05-03T02:31:06.852Z,10.39
2018-05-03T02:32:14.927Z,10.38
2018-05-03T02:33:22.970Z,10.39
2018-05-03T02:34:31.040Z,10.38
2018-05-03T02:35:39.098Z,10.45
2018-05-03T02:36:47.135Z,10.38
2018-05-03T02:37:55.212Z,10.48
2018-05-03T02:39:03.279Z,10.45
2018-05-03T02:40:11.341Z,10.49
2018-05-03T02:41:19.405Z,10.41
2018-05-03T02:42:27.469Z,10.42
2018-05-03T02:43:35.595Z,10.45
2018-05-03T02:44:43.576Z,10.45
2018-05-03T02:45:51.683Z,10.34
2018-05-03T02:46:59.704Z,10.48
2018-05-03T02:48:07.770Z,10.41
2018-05-03T02:49:15.829Z,10.45
2018-05-03T02:50:23.898Z,10.46
2018-05-03T02:51:31.946Z,10.41
2018-05-03T02:52:40.027Z,10.42
2018-05-03T02:53:48.080Z,10.43
2018-05-03T02:54:56.136Z,10.43
2018-05-03T02:56:04.201Z,10.41
2018-05-03T02:57:12.232Z,10.38
2018-05-03T02:58:20.325Z,10.33
2018-05-03T02:59:28.385Z,10.36
2018-05-03T03:00:36.443Z,10.31
2018-05-03T03:01:44.512Z,10.43
2018-05-03T03:02:52.542Z,10.42
2018-05-03T03:04:00.624Z,10.41
2018-05-03T03:05:08.719Z,10.43
2018-05-03T03:06:16.754Z,10.39
2018-05-03T03:07:24.800Z,10.41
2018-05-03T03:08:32.855Z,10.42
2018-05-03T03:09:40.951Z,10.42
2018-05-03T03:10:49.000Z,10.28
2018-05-03T03:11:57.057Z,10.36
2018-05-03T03:13:05.112Z,10.42
2018-05-03T03:14:13.176Z,10.38
2018-05-03T03:15:21.245Z,10.34
2018-05-03T03:16:29.302Z,10.27
2018-05-03T03:17:37.353Z,10.41
2018-05-03T03:18:45.420Z,10.39
2018-05-03T03:19:53.486Z,10.41
2018-05-03T03:21:01.552Z,10.43
2018-05-03T03:22:09.605Z,10.34
2018-05-03T03:23:17.669Z,10.42
2018-05-03T03:24:25.722Z,10.38
2018-05-03T03:25:33.786Z,10.38
2018-05-03T03:26:41.849Z,10.36
2018-05-03T03:27:49.916Z,10.42
2018-05-03T03:28:57.984Z,10.43
2018-05-03T03:30:06.026Z,10.39
2018-05-03T03:31:14.077Z,10.42
2018-05-03T03:32:22.152Z,10.30
2018-05-03T03:33:30.204Z,10.24
2018-05-03T03:34:38.263Z,10.27
2018-05-03T03:35:46.329Z,10.38
2018-05-03T03:36:54.399Z,10.34
2018-05-03T03:38:02.439Z,10.31
2018-05-03T03:39:10.513Z,10.30
2018-05-03T03:40:18.590Z,10.28
2018-05-03T03:41:26.633Z,10.33
2018-05-03T03:42:34.697Z,10.30
2018-05-03T03:43:42.741Z,10.31
2018-05-03T03:44:50.824Z,10.25
2018-05-03T03:45:58.900Z,10.30
2018-05-03T03:47:06.948Z,10.34
2018-05-03T03:48:15.010Z,10.30
2018-05-03T03:49:23.071Z,10.33
2018-05-03T03:50:31.146Z,10.36
2018-05-03T03:51:39.186Z,10.23
2018-05-03T03:52:47.252Z,10.28
2018-05-03T03:53:55.306Z,10.33
2018-05-03T03:55:03.375Z,10.27
2018-05-03T03:56:11.436Z,10.33
2018-05-03T03:57:19.494Z,10.25
2018-05-03T03:58:27.557Z,10.25
2018-05-03T03:59:35.622Z,10.23
2018-05-03T04:00:43.693Z,10.38
2018-05-03T04:01:51.730Z,10.34
2018-05-03T04:02:59.788Z,10.31
2018-05-03T04:04:07.860Z,10.34
2018-05-03T04:05:15.920Z,10.42
2018-05-03T04:06:23.986Z,10.31
2018-05-03T04:07:32.024Z,10.30
2018-05-03T04:08:40.109Z,10.36
2018-05-03T04:09:48.179Z,10.28
2018-05-03T04:10:56.251Z,10.33
2018-05-03T04:12:04.343Z,10.27
2018-05-03T04:13:12.318Z,10.24
2018-05-03T04:14:20.422Z,10.36
2018-05-03T04:15:28.473Z,10.30
2018-05-03T04:16:36.520Z,10.28
2018-05-03T04:17:44.583Z,10.28
2018-05-03T04:18:52.641Z,10.31
2018-05-03T04:20:00.720Z,10.30
2018-05-03T04:21:08.774Z,10.30
2018-05-03T04:22:16.878Z,10.27
2018-05-03T04:23:24.916Z,10.28
2018-05-03T04:24:32.961Z,10.27
2018-05-03T04:25:41.006Z,10.30
2018-05-03T04:26:49.090Z,10.36
2018-05-03T04:27:57.141Z,10.34
2018-05-03T04:29:05.207Z,10.36
2018-05-03T04:30:13.278Z,10.46
2018-05-03T04:31:21.323Z,10.41
2018-05-03T04:32:29.393Z,10.34
2018-05-03T04:33:37.441Z,10.43
2018-05-03T04:34:45.505Z,10.41
2018-05-03T04:35:53.567Z,10.43
2018-05-03T04:37:01.632Z,10.45
2018-05-03T04:38:09.697Z,10.45
2018-05-03T04:39:17.763Z,10.34
2018-05-03T04:40:25.825Z,10.45
2018-05-03T04:41:34.110Z,10.36
2018-05-03T04:42:41.927Z,10.41
2018-05-03T04:43:49.997Z,10.31
2018-05-03T04:44:58.070Z,10.33
2018-05-03T04:46:06.116Z,10.33
2018-05-03T04:47:14.183Z,10.30
2018-05-03T04:48:22.221Z,10.43
2018-05-03T04:49:30.811Z,10.45
2018-05-03T04:50:38.375Z,10.42
2018-05-03T04:51:46.434Z,10.49
2018-05-03T04:52:54.490Z,10.46
2018-05-03T04:54:02.532Z,10.45
2018-05-03T04:55:10.605Z,10.53
2018-05-03T04:56:18.732Z,10.49
2018-05-03T04:57:26.741Z,10.53
2018-05-03T04:58:34.999Z,10.57
2018-05-03T04:59:42.940Z,10.51
2018-05-03T05:00:51.336Z,10.59
2018-05-03T05:01:59.240Z,10.57
2018-05-03T05:03:07.039Z,10.53
2018-05-03T05:04:15.354Z,10.57
2018-05-03T05:05:23.166Z,10.59
2018-05-03T05:06:31.209Z,10.61
2018-05-03T05:07:39.285Z,10.51
2018-05-03T05:08:47.351Z,10.61
2018-05-03T05:09:55.409Z,10.61
2018-05-03T05:11:03.468Z,10.49
2018-05-03T05:12:11.542Z,10.55
2018-05-03T05:13:22.018Z,10.53
2018-05-03T05:14:27.656Z,10.59
2018-05-03T05:15:35.729Z,10.61
2018-05-03T05:16:43.773Z,10.55
2018-05-03T05:17:51.931Z,10.53
2018-05-03T05:18:59.902Z,10.59
2018-05-03T05:20:07.955Z,10.59
2018-05-03T05:21:16.017Z,10.57
2018-05-03T05:22:24.067Z,10.55
2018-05-03T05:23:32.130Z,10.58
2018-05-03T05:24:40.203Z,10.58
2018-05-03T05:25:48.263Z,10.61
2018-05-03T05:26:56.334Z,10.65
2018-05-03T05:28:04.382Z,10.64
2018-05-03T05:29:12.432Z,10.67
2018-05-03T05:30:20.496Z,10.75
2018-05-03T05:31:28.566Z,10.64
2018-05-03T05:32:36.626Z,10.64
2018-05-03T05:33:44.695Z,10.71
2018-05-03T05:34:52.732Z,10.64
2018-05-03T05:36:00.812Z,10.62
2018-05-03T05:37:08.871Z,10.65
2018-05-03T05:38:16.933Z,10.62
2018-05-03T05:39:24.980Z,10.58
2018-05-03T05:40:33.044Z,10.59
2018-05-03T05:41:41.112Z,10.58
2018-05-03T05:42:49.170Z,10.61
2018-05-03T05:43:57.241Z,10.57
2018-05-03T05:45:05.307Z,10.58
2018-05-03T05:46:13.345Z,10.57
2018-05-03T05:47:21.419Z,10.57
2018-05-03T05:48:29.497Z,10.59
2018-05-03T05:49:37.535Z,10.53
2018-05-03T05:50:45.600Z,10.61
2018-05-03T05:51:53.667Z,10.53
2018-05-03T05:53:01.769Z,10.57
2018-05-03T05:54:09.776Z,10.57
2018-05-03T05:55:17.855Z,10.58
2018-05-03T05:56:25.909Z,10.61
2018-05-03T05:57:33.962Z,10.68
2018-05-03T05:58:42.028Z,10.64
2018-05-03T05:59:50.077Z,10.64
2018-05-03T06:00:58.148Z,10.64
2018-05-03T06:02:06.216Z,10.72
2018-05-03T06:03:14.277Z,10.62
2018-05-03T06:04:22.419Z,10.69
2018-05-03T06:05:30.402Z,10.69
2018-05-03T06:06:38.450Z,10.77
2018-05-03T06:07:46.544Z,10.76
2018-05-03T06:08:54.577Z,10.76
2018-05-03T06:10:02.629Z,10.72
2018-05-03T06:11:10.708Z,10.75
2018-05-03T06:12:18.771Z,10.83
2018-05-03T06:13:26.840Z,10.83
2018-05-03T06:14:34.888Z,10.83
2018-05-03T06:15:42.967Z,10.82
2018-05-03T06:16:51.025Z,10.82
2018-05-03T06:17:59.084Z,10.86
2018-05-03T06:19:07.146Z,10.80
2018-05-03T06:20:15.203Z,10.82
2018-05-03T06:21:23.248Z,10.86
2018-05-03T06:22:31.326Z,10.83
2018-05-03T06:23:39.402Z,10.90
2018-05-03T06:24:47.437Z,10.94
2018-05-03T06:25:55.556Z,11.00
2018-05-03T06:27:03.570Z,10.94
2018-05-03T06:28:11.620Z,11.02
2018-05-03T06:29:19.680Z,11.05
2018-05-03T06:30:27.750Z,11.02
2018-05-03T06:31:35.833Z,11.07
2018-05-03T06:32:43.889Z,11.08
2018-05-03T06:33:51.923Z,11.12
2018-05-03T06:34:59.999Z,11.10
2018-05-03T06:36:08.052Z,11.20
2018-05-03T06:37:16.126Z,11.22
2018-05-03T06:38:24.181Z,11.16
2018-05-03T06:39:32.233Z,11.19
2018-05-03T06:40:40.317Z,11.23
2018-05-03T06:41:48.372Z,11.31
2018-05-03T06:42:56.442Z,11.34
2018-05-03T06:44:04.487Z,11.34
2018-05-03T06:45:12.572Z,11.26
2018-05-03T06:46:20.616Z,11.27
2018-05-03T06:47:28.675Z,11.15
2018-05-03T06:48:36.733Z,11.18
2018-05-03T06:49:44.806Z,11.27
2018-05-03T06:50:52.852Z,11.35
2018-05-03T06:52:00.919Z,11.35
2018-05-03T06:53:08.982Z,11.40
2018-05-03T06:54:17.057Z,11.48
2018-05-03T06:55:25.095Z,11.45
2018-05-03T06:56:33.185Z,11.55
2018-05-03T06:57:41.230Z,11.63
2018-05-03T06:58:49.295Z,11.53
2018-05-03T06:59:57.354Z,11.44
2018-05-03T07:01:05.420Z,11.56
2018-05-03T07:02:13.479Z,11.55
2018-05-03T07:03:21.542Z,11.56
2018-05-03T07:04:29.740Z,11.59
2018-05-03T07:05:37.658Z,11.63
2018-05-03T07:06:45.723Z,11.62
2018-05-03T07:07:53.829Z,11.58
2018-05-03T07:09:01.858Z,11.58
2018-05-03T07:10:09.928Z,11.56
2018-05-03T07:11:17.989Z,11.62
2018-05-03T07:12:26.037Z,11.53
2018-05-03T07:13:34.099Z,11.58
2018-05-03T07:14:42.147Z,11.56
2018-05-03T07:15:50.235Z,11.58
2018-05-03T07:16:58.294Z,11.58
2018-05-03T07:18:06.342Z,11.62
2018-05-03T07:19:14.399Z,11.62
2018-05-03T07:20:22.452Z,11.70
2018-05-03T07:21:30.541Z,11.70
2018-05-03T07:22:38.592Z,11.65
2018-05-03T07:23:46.765Z,11.71
2018-05-03T07:24:54.720Z,11.71
2018-05-03T07:26:02.766Z,11.85
2018-05-03T07:27:10.846Z,11.88
2018-05-03T07:28:18.908Z,11.95
2018-05-03T07:29:26.980Z,12.05
2018-05-03T07:30:35.036Z,12.08
2018-05-03T07:31:43.098Z,12.08
2018-05-03T07:32:51.162Z,12.12
2018-05-03T07:33:59.214Z,12.12
2018-05-03T07:35:07.281Z,12.11
2018-05-03T07:36:15.356Z,12.10
2018-05-03T07:37:23.404Z,12.10
2018-05-03T07:38:31.477Z,11.83
2018-05-03T07:39:39.555Z,11.81
2018-05-03T07:40:47.758Z,11.83
2018-05-03T07:41:55.657Z,11.86
2018-05-03T07:43:03.725Z,11.81
2018-05-03T07:44:11.807Z,11.71
2018-05-03T07:45:19.852Z,11.83
2018-05-03T07:46:27.894Z,11.88
2018-05-03T07:47:35.959Z,11.85
2018-05-03T07:48:44.032Z,11.93
2018-05-03T07:49:52.077Z,11.89
2018-05-03T07:51:00.142Z,11.78
2018-05-03T07:52:08.227Z,11.71
2018-05-03T07:53:16.288Z,11.63
2018-05-03T07:54:24.351Z,11.53
2018-05-03T07:55:32.380Z,11.55
2018-05-03T07:56:40.526Z,11.71
2018-05-03T07:57:48.535Z,11.63
2018-05-03T07:58:56.634Z,11.67
2018-05-03T08:00:04.646Z,11.77
2018-05-03T08:01:12.831Z,11.80
2018-05-03T08:02:20.783Z,11.86
2018-05-03T08:03:28.851Z,11.85
2018-05-03T08:04:36.915Z,11.88
2018-05-03T08:05:44.980Z,11.91
2018-05-03T08:06:53.033Z,12.08
2018-05-03T08:08:01.103Z,12.03
2018-05-03T08:09:09.162Z,12.00
2018-05-03T08:10:17.213Z,12.15
2018-05-03T08:11:25.283Z,12.10
2018-05-03T08:12:33.372Z,12.21
2018-05-03T08:13:41.418Z,12.10
2018-05-03T08:14:49.483Z,12.10
2018-05-03T08:15:57.543Z,11.99
2018-05-03T08:17:05.668Z,11.91
2018-05-03T08:18:13.649Z,12.00
2018-05-03T08:19:21.733Z,12.03
2018-05-03T08:20:29.801Z,12.08
2018-05-03T08:21:37.847Z,12.11
2018-05-03T08:22:45.918Z,12.18
2018-05-03T08:23:53.968Z,12.05
2018-05-03T08:25:02.032Z,12.14
2018-05-03T08:26:10.141Z,11.89
2018-05-03T08:27:18.160Z,12.02
2018-05-03T08:28:26.247Z,12.11
2018-05-03T08:29:34.297Z,12.21
2018-05-03T08:30:42.332Z,12.29
2018-05-03T08:31:50.437Z,12.40
2018-05-03T08:32:58.465Z,12.35
2018-05-03T08:34:06.539Z,12.37
2018-05-03T08:35:14.612Z,12.36
2018-05-03T08:36:22.650Z,12.37
2018-05-03T08:37:30.725Z,12.45
2018-05-03T08:38:38.792Z,12.45
2018-05-03T08:39:46.849Z,12.48
2018-05-03T08:40:54.906Z,12.44
2018-05-03T08:42:02.953Z,12.43
2018-05-03T08:43:11.043Z,12.39
2018-05-03T08:44:19.105Z,12.39
2018-05-03T08:45:27.165Z,12.10
2018-05-03T08:46:35.233Z,12.21
2018-05-03T08:47:43.286Z,12.20
2018-05-03T08:48:51.353Z,12.21
2018-05-03T08:49:59.420Z,12.26
2018-05-03T08:51:07.477Z,12.39
2018-05-03T08:52:15.548Z,12.40
2018-05-03T08:53:23.600Z,12.57
2018-05-03T08:54:31.677Z,12.73
2018-05-03T08:55:39.803Z,12.83
2018-05-03T08:56:47.802Z,12.86
2018-05-03T08:57:55.862Z,12.90
2018-05-03T08:59:03.925Z,12.72
2018-05-03T09:00:11.974Z,12.69
2018-05-03T09:01:20.123Z,12.83
2018-05-03T09:02:28.101Z,12.83
2018-05-03T09:03:36.175Z,12.90
2018-05-03T09:04:44.230Z,12.78
2018-05-03T09:05:52.288Z,12.90
2018-05-03T09:07:00.383Z,12.98
2018-05-03T09:08:08.419Z,12.98
2018-05-03T09:09:16.488Z,12.88
2018-05-03T09:10:24.562Z,12.93
2018-05-03T09:11:32.604Z,13.05
2018-05-03T09:12:40.683Z,13.03
2018-05-03T09:13:48.752Z,13.06
2018-05-03T09:14:56.822Z,13.05
2018-05-03T09:16:04.873Z,13.12
2018-05-03T09:17:12.924Z,13.12
2018-05-03T09:18:21.003Z,13.19
2018-05-03T09:19:29.060Z,13.26
2018-05-03T09:20:37.132Z,13.26
2018-05-03T09:21:45.198Z,13.26
2018-05-03T09:22:53.253Z,13.28
2018-05-03T09:24:01.325Z,13.13
2018-05-03T09:25:09.382Z,13.06
2018-05-03T09:26:17.451Z,13.05
2018-05-03T09:27:25.522Z,13.02
2018-05-03T09:28:33.575Z,12.83
2018-05-03T09:29:41.647Z,12.83
2018-05-03T09:30:49.696Z,12.84
2018-05-03T09:31:57.752Z,12.83
2018-05-03T09:33:05.829Z,12.80
2018-05-03T09:34:13.900Z,12.76
2018-05-03T09:35:21.946Z,12.88
2018-05-03T09:36:29.998Z,12.80
2018-05-03T09:37:38.078Z,12.90
2018-05-03T09:38:46.141Z,12.84
2018-05-03T09:39:54.197Z,12.93
2018-05-03T09:41:02.252Z,13.02
2018-05-03T09:42:10.342Z,12.98
2018-05-03T09:43:18.408Z,12.95
2018-05-03T09:44:26.486Z,12.93
2018-05-03T09:45:34.527Z,12.91
2018-05-03T09:46:42.679Z,12.94
2018-05-03T09:47:50.643Z,12.99
2018-05-03T09:48:58.720Z,13.17
2018-05-03T09:50:06.780Z,13.11
2018-05-03T09:51:14.851Z,12.84
2018-05-03T09:52:22.938Z,12.87
2018-05-03T09:53:30.974Z,12.84
2018-05-03T09:54:39.029Z,12.78
2018-05-03T09:55:47.107Z,12.87
2018-05-03T09:56:55.177Z,13.03
2018-05-03T09:58:03.220Z,13.06
2018-05-03T09:59:11.298Z,13.06
2018-05-03T10:00:19.342Z,13.02
2018-05-03T10:01:27.422Z,13.05
2018-05-03T10:02:35.467Z,13.09
2018-05-03T10:03:43.534Z,12.95
2018-05-03T10:04:51.622Z,12.94
2018-05-03T10:05:59.668Z,13.17
2018-05-03T10:07:07.737Z,13.30
2018-05-03T10:08:15.820Z,13.23
2018-05-03T10:09:23.862Z,13.36
2018-05-03T10:10:31.919Z,13.54
2018-05-03T10:11:39.984Z,13.61
2018-05-03T10:12:48.059Z,13.68
2018-05-03T10:13:56.107Z,13.70
2018-05-03T10:15:04.188Z,13.68
2018-05-03T10:16:12.220Z,13.68
2018-05-03T10:17:20.326Z,13.73
2018-05-03T10:18:28.383Z,13.86
2018-05-03T10:19:36.458Z,13.97
2018-05-03T10:20:44.503Z,13.89
2018-05-03T10:21:52.544Z,13.93
2018-05-03T10:23:00.628Z,13.89
2018-05-03T10:24:08.695Z,14.07
2018-05-03T10:25:16.759Z,14.03
2018-05-03T10:26:24.833Z,13.85
2018-05-03T10:27:32.886Z,14.08
2018-05-03T10:28:40.965Z,14.40
2018-05-03T10:29:49.029Z,14.66
2018-05-03T10:30:57.082Z,14.85
2018-05-03T10:32:05.150Z,14.94
2018-05-03T10:33:13.223Z,14.99
2018-05-03T10:34:21.296Z,15.10
2018-05-03T10:35:29.355Z,15.19
2018-05-03T10:36:37.424Z,15.52
2018-05-03T10:37:45.473Z,15.48
2018-05-03T10:38:53.551Z,15.52
2018-05-03T10:40:01.611Z,15.55
2018-05-03T10:41:09.677Z,15.00
2018-05-03T10:42:17.776Z,15.27
2018-05-03T10:43:25.822Z,15.15
2018-05-03T10:44:33.878Z,15.25
2018-05-03T10:45:41.929Z,15.48
2018-05-03T10:46:50.005Z,15.63
2018-05-03T10:47:58.079Z,15.67
2018-05-03T10:49:06.230Z,15.87
2018-05-03T10:50:14.211Z,16.00
2018-05-03T10:51:22.255Z,16.09
2018-05-03T10:52:30.344Z,15.91
2018-05-03T10:53:38.411Z,15.96
2018-05-03T10:54:46.476Z,16.18
2018-05-03T10:55:54.536Z,15.96
2018-05-03T10:57:02.631Z,15.98
2018-05-03T10:58:10.666Z,16.06
2018-05-03T10:59:18.742Z,15.57
2018-05-03T11:00:26.814Z,15.78
2018-05-03T11:01:34.877Z,15.98
2018-05-03T11:02:42.928Z,16.17
2018-05-03T11:03:51.005Z,16.34
2018-05-03T11:04:59.074Z,16.44
2018-05-03T11:06:07.147Z,16.69
2018-05-03T11:07:15.213Z,16.74
2018-05-03T11:08:23.284Z,16.40
2018-05-03T11:09:31.346Z,16.34
2018-05-03T11:10:39.415Z,16.65
2018-05-03T11:11:47.481Z,16.65
2018-05-03T11:12:55.531Z,16.82
2018-05-03T11:14:03.604Z,16.98
2018-05-03T11:15:11.691Z,16.76
2018-05-03T11:16:19.741Z,16.41
2018-05-03T11:17:27.805Z,16.44
2018-05-03T11:18:35.868Z,16.41
2018-05-03T11:19:43.951Z,16.39
2018-05-03T11:20:51.997Z,16.09
2018-05-03T11:22:00.079Z,15.78
2018-05-03T11:23:08.148Z,15.84
2018-05-03T11:24:17.283Z,16.10
2018-05-03T11:25:24.301Z,16.05
2018-05-03T11:26:32.341Z,16.31
2018-05-03T11:27:40.425Z,16.32
2018-05-03T11:28:48.497Z,16.59
2018-05-03T11:29:56.539Z,16.83
2018-05-03T11:31:04.674Z,16.95
2018-05-03T11:32:12.670Z,16.76
2018-05-03T11:33:20.760Z,16.74
2018-05-03T11:34:28.823Z,16.80
2018-05-03T11:35:36.873Z,16.82
2018-05-03T11:36:45.032Z,16.91
2018-05-03T11:37:53.020Z,17.17
2018-05-03T11:39:01.087Z,17.30
2018-05-03T11:40:09.165Z,17.24
2018-05-03T11:41:17.223Z,17.02
2018-05-03T11:42:25.291Z,17.24
2018-05-03T11:43:33.356Z,16.97
2018-05-03T11:44:41.422Z,16.84
2018-05-03T11:45:49.484Z,16.82
2018-05-03T11:46:57.554Z,16.51
2018-05-03T11:48:05.622Z,16.69
2018-05-03T11:49:13.706Z,16.80
2018-05-03T11:50:21.754Z,16.83
2018-05-03T11:51:29.835Z,16.80
2018-05-03T11:52:37.894Z,16.82
2018-05-03T11:53:45.991Z,16.98
2018-05-03T11:54:54.056Z,17.05
2018-05-03T11:56:02.073Z,17.27
2018-05-03T11:57:10.162Z,17.50
2018-05-03T11:58:18.240Z,17.49
2018-05-03T11:59:26.544Z,17.47
2018-05-03T12:00:34.394Z,17.41
2018-05-03T12:01:42.407Z,17.27
2018-05-03T12:02:50.526Z,17.46
2018-05-03T12:03:58.572Z,17.38
2018-05-03T12:05:06.635Z,17.22
2018-05-03T12:06:14.708Z,17.14
2018-05-03T12:07:22.784Z,17.01
2018-05-03T12:08:30.843Z,17.10
2018-05-03T12:09:38.901Z,17.13
2018-05-03T12:10:46.969Z,17.34
2018-05-03T12:11:55.040Z,17.35
2018-05-03T12:13:03.103Z,17.59
2018-05-03T12:14:11.168Z,18.02
2018-05-03T12:15:19.239Z,17.68
2018-05-03T12:16:27.302Z,18.08
2018-05-03T12:17:35.369Z,18.18
2018-05-03T12:18:43.453Z,18.02
2018-05-03T12:19:51.534Z,17.91
2018-05-03T12:20:59.581Z,18.00
2018-05-03T12:22:07.652Z,17.72
2018-05-03T12:23:15.719Z,18.02
2018-05-03T12:24:23.839Z,17.98
2018-05-03T12:25:31.855Z,17.76
2018-05-03T12:26:39.918Z,17.98
2018-05-03T12:27:47.991Z,17.93
2018-05-03T12:28:56.063Z,17.82
2018-05-03T12:30:04.126Z,17.82
2018-05-03T12:31:12.174Z,17.56
2018-05-03T12:32:20.262Z,17.93
2018-05-03T12:33:28.331Z,18.02
2018-05-03T12:34:36.397Z,18.21
2018-05-03T12:35:44.465Z,18.36
2018-05-03T12:36:52.503Z,18.61
2018-05-03T12:38:00.585Z,18.52
2018-05-03T12:39:08.666Z,18.30
2018-05-03T12:40:16.731Z,18.21
2018-05-03T12:41:24.833Z,18.33
2018-05-03T12:42:32.853Z,18.11
2018-05-03T12:43:40.943Z,18.11
2018-05-03T12:44:48.997Z,18.23
2018-05-03T12:45:57.062Z,18.13
2018-05-03T12:47:05.133Z,18.00
2018-05-03T12:48:13.230Z,18.06
2018-05-03T12:49:21.265Z,18.28
2018-05-03T12:50:29.350Z,18.12
2018-05-03T12:51:37.414Z,18.31
2018-05-03T12:52:45.481Z,17.91
2018-05-03T12:53:53.555Z,18.00
2018-05-03T12:55:01.622Z,18.02
2018-05-03T12:56:09.692Z,17.50
2018-05-03T12:57:17.767Z,17.53
2018-05-03T12:58:25.814Z,17.53
2018-05-03T12:59:33.883Z,17.24
2018-05-03T13:00:41.996Z,17.30
2018-05-03T13:01:50.023Z,17.49
2018-05-03T13:02:58.096Z,17.37
2018-05-03T13:04:06.163Z,17.23
2018-05-03T13:05:14.226Z,17.12
2018-05-03T13:06:22.275Z,17.23
2018-05-03T13:07:30.351Z,17.20
2018-05-03T13:08:38.425Z,16.94
2018-05-03T13:09:46.488Z,17.16
2018-05-03T13:10:54.577Z,17.13
2018-05-03T13:12:02.611Z,17.30
2018-05-03T13:13:10.692Z,17.50
2018-05-03T13:14:18.797Z,17.75
2018-05-03T13:15:26.832Z,17.68
2018-05-03T13:16:34.899Z,17.93
2018-05-03T13:17:43.000Z,17.78
2018-05-03T13:18:51.032Z,17.50
2018-05-03T13:19:59.099Z,17.42
2018-05-03T13:21:07.178Z,17.59
2018-05-03T13:22:15.234Z,18.12
2018-05-03T13:23:23.312Z,18.33
2018-05-03T13:24:31.373Z,18.51
2018-05-03T13:25:39.433Z,18.12
2018-05-03T13:26:47.499Z,17.79
2018-05-03T13:27:55.586Z,17.75
2018-05-03T13:29:03.639Z,18.12
2018-05-03T13:30:11.720Z,18.23
2018-05-03T13:31:19.775Z,18.19
2018-05-03T13:32:27.880Z,18.13
2018-05-03T13:33:35.902Z,18.31
2018-05-03T13:34:43.973Z,18.45
2018-05-03T13:35:52.035Z,18.11
2018-05-03T13:37:00.108Z,18.19
2018-05-03T13:38:08.180Z,18.30
2018-05-03T13:39:16.242Z,18.08
2018-05-03T13:40:24.304Z,18.19
2018-05-03T13:41:32.348Z,17.97
2018-05-03T13:42:40.442Z,17.49
2018-05-03T13:43:48.518Z,17.47
2018-05-03T13:44:56.585Z,17.37
2018-05-03T13:46:04.654Z,17.66
2018-05-03T13:47:12.692Z,17.91
2018-05-03T13:48:20.785Z,17.49
2018-05-03T13:49:28.870Z,17.49
2018-05-03T13:50:36.920Z,17.68
2018-05-03T13:51:45.003Z,17.91
2018-05-03T13:52:53.049Z,17.56
2018-05-03T13:54:01.129Z,17.37
2018-05-03T13:55:09.190Z,17.14
2018-05-03T13:56:17.253Z,17.37
2018-05-03T13:57:25.338Z,17.19
2018-05-03T13:58:33.400Z,17.49
2018-05-03T13:59:41.474Z,17.76
2018-05-03T14:00:49.605Z,18.06
2018-05-03T14:01:57.601Z,18.21
2018-05-03T14:03:05.686Z,18.43
2018-05-03T14:04:13.735Z,18.46
2018-05-03T14:05:21.808Z,18.73
2018-05-03T14:06:29.870Z,18.91
2018-05-03T14:07:37.946Z,19.08
2018-05-03T14:08:46.001Z,18.52
2018-05-03T14:09:54.076Z,18.55
2018-05-03T14:11:02.137Z,18.61
2018-05-03T14:12:10.220Z,18.83
2018-05-03T14:13:18.286Z,18.76
2018-05-03T14:14:26.329Z,18.76
2018-05-03T14:15:34.422Z,18.61
2018-05-03T14:16:42.451Z,18.64
2018-05-03T14:17:50.551Z,18.76
2018-05-03T14:18:58.625Z,18.85
2018-05-03T14:20:06.689Z,18.83
2018-05-03T14:21:14.747Z,18.78
2018-05-03T14:22:22.819Z,18.79
2018-05-03T14:23:30.903Z,18.45
2018-05-03T14:24:38.964Z,18.02
2018-05-03T14:25:47.023Z,17.95
2018-05-03T14:26:55.083Z,18.16
2018-05-03T14:28:03.156Z,18.31
2018-05-03T14:29:11.235Z,18.42
2018-05-03T14:30:19.301Z,18.66
2018-05-03T14:31:27.361Z,18.78
2018-05-03T14:32:35.427Z,18.76
2018-05-03T14:33:43.506Z,18.57
2018-05-03T14:34:51.560Z,18.52
2018-05-03T14:35:59.627Z,18.55